Terminal Aerodrome Forecast
Issued by NWS Wilmington, OH

Current Version | Previous Version | Graphics & Text | Print | Product List | Glossary Off
Versions: 1 2 3 4 5 6 7 8 9 10 11 12 13 14 15 16 17 18 19

000
FTUS41 KILN 252049 AAB
TAFDAY
TAF AMD
KDAY 252049Z 2521/2618 34012KT P6SM SCT040 BKN050
     FM252300 34006KT P6SM SCT028 BKN200
     FM261300 10005KT P6SM SCT035 BKN200=

USA.gov is the U.S. government's official web portal to all federal, state and local government web resources and services.